createdAt,value
2022-08-30T00:00:52.854Z,101386.31
2022-08-30T00:01:40.667Z,101386.84
2022-08-30T00:02:27.281Z,101389.50
2022-08-30T00:03:14.525Z,101379.50
2022-08-30T00:04:02.016Z,101381.88
2022-08-30T00:04:48.660Z,101387.25
2022-08-30T00:05:35.163Z,101390.97
2022-08-30T00:06:23.095Z,101386.16
2022-08-30T00:07:09.555Z,101389.09
2022-08-30T00:07:57.175Z,101393.38
2022-08-30T00:08:45.644Z,101390.44
2022-08-30T00:09:32.635Z,101383.19
2022-08-30T00:10:19.558Z,101394.97
2022-08-30T00:11:09.819Z,101392.00
2022-08-30T00:11:56.261Z,101388.22
2022-08-30T00:12:43.521Z,101388.50
2022-08-30T00:13:30.293Z,101388.75
2022-08-30T00:14:16.994Z,101390.31
2022-08-30T00:15:05.550Z,101386.84
2022-08-30T00:15:52.442Z,101394.88
2022-08-30T00:16:38.923Z,101389.78
2022-08-30T00:17:25.428Z,101383.84
2022-08-30T00:18:11.956Z,101389.97
2022-08-30T00:18:58.971Z,101388.34
2022-08-30T00:19:45.943Z,101393.16
2022-08-30T00:20:34.981Z,101389.13
2022-08-30T00:21:21.967Z,101389.09
2022-08-30T00:22:10.009Z,101390.94
2022-08-30T00:22:56.737Z,101388.78
2022-08-30T00:23:43.313Z,101390.41
2022-08-30T00:24:29.848Z,101390.94
2022-08-30T00:25:18.060Z,101393.88
2022-08-30T00:26:06.443Z,101392.22
2022-08-30T00:26:53.315Z,101390.59
2022-08-30T00:27:40.416Z,101388.16
2022-08-30T00:28:26.870Z,101386.53
2022-08-30T00:29:13.904Z,101383.34
2022-08-30T00:30:00.493Z,101383.56
2022-08-30T00:30:47.435Z,101388.91
2022-08-30T00:31:34.035Z,101384.09
2022-08-30T00:32:21.616Z,101387.81
2022-08-30T00:33:08.921Z,101376.00
2022-08-30T00:33:55.423Z,101389.41
2022-08-30T00:34:42.009Z,101391.50
2022-08-30T00:35:29.441Z,101394.19
2022-08-30T00:36:16.062Z,101390.94
2022-08-30T00:37:02.707Z,101395.75
2022-08-30T00:37:50.796Z,101394.13
2022-08-30T00:38:37.247Z,101389.28
2022-08-30T00:39:23.680Z,101390.09
2022-08-30T00:40:12.341Z,101393.56
2022-08-30T00:40:59.682Z,101388.22
2022-08-30T00:41:46.715Z,101395.72
2022-08-30T00:42:33.482Z,101395.13
2022-08-30T00:43:25.432Z,101398.38
2022-08-30T00:44:14.399Z,101392.78
2022-08-30T00:45:09.944Z,101391.44
2022-08-30T00:45:57.209Z,101385.59
2022-08-30T00:46:43.833Z,101382.38
2022-08-30T00:47:30.378Z,101390.19
2022-08-30T00:48:17.526Z,101386.72
2022-08-30T00:49:09.239Z,101378.13
2022-08-30T00:49:57.848Z,101391.56
2022-08-30T00:50:48.890Z,101389.69
2022-08-30T00:51:35.730Z,101387.56
2022-08-30T00:52:23.858Z,101385.94
2022-08-30T00:53:18.806Z,101392.69
2022-08-30T00:54:05.896Z,101384.38
2022-08-30T00:54:53.711Z,101385.19
2022-08-30T00:55:42.894Z,101386.81
2022-08-30T00:56:32.964Z,101390.06
2022-08-30T00:57:20.320Z,101389.75
2022-08-30T00:58:13.075Z,101386.00
2022-08-30T00:59:02.851Z,101397.78
2022-08-30T00:59:50.700Z,101394.81
2022-08-30T01:00:37.276Z,101398.78
2022-08-30T01:01:26.771Z,101395.84
2022-08-30T01:02:14.289Z,101393.44
2022-08-30T01:03:00.882Z,101393.44
2022-08-30T01:03:48.853Z,101397.16
2022-08-30T01:04:37.830Z,101394.75
2022-08-30T01:05:24.491Z,101394.19
2022-08-30T01:06:14.909Z,101393.94
2022-08-30T01:07:01.808Z,101398.75
2022-08-30T01:07:48.326Z,101396.28
2022-08-30T01:08:35.576Z,101402.72
2022-08-30T01:09:24.623Z,101393.63
2022-08-30T01:10:15.103Z,101395.50
2022-08-30T01:11:04.092Z,101396.81
2022-08-30T01:11:50.803Z,101395.44
2022-08-30T01:12:39.670Z,101397.31
2022-08-30T01:13:28.101Z,101397.81
2022-08-30T01:14:17.103Z,101391.88
2022-08-30T01:15:05.889Z,101398.34
2022-08-30T01:15:53.694Z,101401.00
2022-08-30T01:16:44.791Z,101398.34
2022-08-30T01:17:31.972Z,101380.59
2022-08-30T01:18:21.295Z,101394.03
2022-08-30T01:19:25.104Z,101395.88
2022-08-30T01:20:24.218Z,101400.19
2022-08-30T01:21:13.392Z,101397.75
2022-08-30T01:22:18.112Z,101395.88
2022-08-30T01:23:15.579Z,101406.59
2022-08-30T01:24:04.590Z,101395.66
2022-08-30T01:24:56.071Z,101404.75
2022-08-30T01:25:47.965Z,101405.28
2022-08-30T01:26:36.206Z,101406.09
2022-08-30T01:27:25.027Z,101401.56
2022-08-30T01:28:17.971Z,101404.78
2022-08-30T01:29:11.537Z,101403.75
2022-08-30T01:29:59.040Z,101414.44
2022-08-30T01:30:46.639Z,101403.47
2022-08-30T01:31:37.150Z,101407.78
2022-08-30T01:32:29.436Z,101415.56
2022-08-30T01:33:16.230Z,101411.81
2022-08-30T01:34:07.666Z,101399.22
2022-08-30T01:34:54.697Z,101408.09
2022-08-30T01:35:52.379Z,101414.81
2022-08-30T01:36:44.976Z,101405.72
2022-08-30T01:37:35.116Z,101409.19
2022-08-30T01:38:28.593Z,101409.47
2022-08-30T01:39:17.675Z,101408.88
2022-08-30T01:40:06.912Z,101408.09
2022-08-30T01:40:59.541Z,101416.66
2022-08-30T01:41:46.588Z,101416.44
2022-08-30T01:42:33.772Z,101411.63
2022-08-30T01:43:20.281Z,101410.31
2022-08-30T01:44:10.575Z,101410.88
2022-08-30T01:44:57.124Z,101417.34
2022-08-30T01:45:43.807Z,101413.03
2022-08-30T01:46:36.059Z,101412.81
2022-08-30T01:47:22.912Z,101415.75
2022-08-30T01:48:12.964Z,101417.69
2022-08-30T01:48:59.506Z,101419.06
2022-08-30T01:49:46.734Z,101415.06
2022-08-30T01:50:33.834Z,101419.34
2022-08-30T01:51:22.348Z,101419.09
2022-08-30T01:52:08.797Z,101416.19
2022-08-30T01:52:55.304Z,101419.66
2022-08-30T01:53:44.653Z,101417.56
2022-08-30T01:54:37.023Z,101419.97
2022-08-30T01:55:25.037Z,101415.41
2022-08-30T01:56:13.281Z,101412.47
2022-08-30T01:56:59.820Z,101412.47
2022-08-30T01:57:47.263Z,101415.97
2022-08-30T01:58:35.025Z,101418.09
2022-08-30T01:59:21.494Z,101420.22
2022-08-30T02:00:10.180Z,101413.78
2022-08-30T02:00:59.709Z,101415.94
2022-08-30T02:01:46.697Z,101421.28
2022-08-30T02:02:34.358Z,101408.94
2022-08-30T02:03:21.132Z,101419.13
2022-08-30T02:04:11.707Z,101416.47
2022-08-30T02:04:58.498Z,101414.88
2022-08-30T02:05:45.660Z,101411.09
2022-08-30T02:06:32.619Z,101414.59
2022-08-30T02:07:20.614Z,101415.41
2022-08-30T02:08:07.715Z,101410.03
2022-08-30T02:08:54.521Z,101411.66
2022-08-30T02:09:42.460Z,101419.44
2022-08-30T02:10:30.264Z,101416.75
2022-08-30T02:11:17.767Z,101413.03
2022-08-30T02:12:07.272Z,101416.53
2022-08-30T02:12:53.725Z,101415.44
2022-08-30T02:13:44.667Z,101414.66
2022-08-30T02:14:31.147Z,101418.94
2022-08-30T02:15:18.121Z,101415.44
2022-08-30T02:16:11.095Z,101409.00
2022-08-30T02:16:57.917Z,101412.22
2022-08-30T02:17:44.878Z,101420.81
2022-08-30T02:18:34.628Z,101407.09
2022-08-30T02:19:21.181Z,101417.34
2022-08-30T02:20:09.530Z,101414.91
2022-08-30T02:20:56.092Z,101416.75
2022-08-30T02:21:42.649Z,101417.34
2022-08-30T02:22:29.466Z,101421.91
2022-08-30T02:23:16.978Z,101422.13
2022-08-30T02:24:04.101Z,101417.81
2022-08-30T02:24:50.782Z,101422.13
2022-08-30T02:25:37.688Z,101424.00
2022-08-30T02:26:25.015Z,101413.28
2022-08-30T02:27:11.669Z,101427.25
2022-08-30T02:27:59.004Z,101424.81
2022-08-30T02:28:50.153Z,101426.44
2022-08-30T02:29:36.832Z,101421.31
2022-08-30T02:30:23.863Z,101421.91
2022-08-30T02:31:10.815Z,101420.00
2022-08-30T02:31:57.381Z,101423.50
2022-08-30T02:32:44.092Z,101419.22
2022-08-30T02:33:31.692Z,101421.06
2022-08-30T02:34:19.497Z,101423.75
2022-08-30T02:35:06.370Z,101428.06
2022-08-30T02:35:52.847Z,101421.63
2022-08-30T02:36:40.907Z,101421.38
2022-08-30T02:37:27.503Z,101418.94
2022-08-30T02:38:14.759Z,101410.59
2022-08-30T02:39:01.395Z,101416.28
2022-08-30T02:39:47.837Z,101412.22
2022-08-30T02:40:34.431Z,101413.28
2022-08-30T02:41:23.289Z,101410.03
2022-08-30T02:42:09.950Z,101406.31
2022-08-30T02:42:57.095Z,101404.69
2022-08-30T02:43:44.238Z,101406.03
2022-08-30T02:44:31.028Z,101403.63
2022-08-30T02:45:17.512Z,101406.03
2022-08-30T02:46:06.627Z,101402.56
2022-08-30T02:46:53.181Z,101402.56
2022-08-30T02:47:43.615Z,101399.06
2022-08-30T02:48:33.922Z,101397.22
2022-08-30T02:49:33.157Z,101390.22
2022-08-30T02:50:20.619Z,101398.84
2022-08-30T02:51:11.657Z,101401.75
2022-08-30T02:51:58.746Z,101402.56
2022-08-30T02:52:48.330Z,101405.56
2022-08-30T02:53:35.373Z,101394.78
2022-08-30T02:54:23.386Z,101399.63
2022-08-30T02:55:10.702Z,101393.97
2022-08-30T02:55:57.180Z,101397.22
2022-08-30T02:56:44.426Z,101398.84
2022-08-30T02:57:31.043Z,101399.88
2022-08-30T02:58:17.576Z,101390.00
2022-08-30T02:59:04.006Z,101389.47
2022-08-30T02:59:50.594Z,101391.31
2022-08-30T03:00:37.553Z,101384.41
2022-08-30T03:01:28.733Z,101383.31
2022-08-30T03:02:16.247Z,101388.16
2022-08-30T03:03:04.360Z,101380.59
2022-08-30T03:03:50.993Z,101377.38
2022-08-30T03:04:39.202Z,101384.59
2022-08-30T03:05:26.086Z,101385.94
2022-08-30T03:06:14.752Z,101385.94
2022-08-30T03:07:01.346Z,101387.78
2022-08-30T03:07:47.800Z,101392.06
2022-08-30T03:08:34.383Z,101385.03
2022-08-30T03:09:20.980Z,101391.19
2022-08-30T03:10:08.518Z,101388.47
2022-08-30T03:10:57.128Z,101390.09
2022-08-30T03:11:43.800Z,101392.78
2022-08-30T03:12:32.425Z,101392.47
2022-08-30T03:13:21.214Z,101383.06
2022-08-30T03:14:07.854Z,101375.78
2022-08-30T03:14:54.269Z,101385.94
2022-08-30T03:15:41.461Z,101390.25
2022-08-30T03:16:28.131Z,101394.81
2022-08-30T03:17:15.674Z,101389.94
2022-08-30T03:18:02.518Z,101393.69
2022-08-30T03:18:49.091Z,101385.66
2022-08-30T03:19:37.124Z,101382.91
2022-08-30T03:20:24.356Z,101389.41
2022-08-30T03:21:14.559Z,101386.41
2022-08-30T03:22:00.976Z,101386.66
2022-08-30T03:22:48.946Z,101388.78
2022-08-30T03:23:35.494Z,101389.84
2022-08-30T03:24:22.086Z,101387.91
2022-08-30T03:25:09.534Z,101384.44
2022-08-30T03:25:57.238Z,101390.03
2022-08-30T03:26:46.374Z,101394.56
2022-08-30T03:27:33.352Z,101392.97
2022-08-30T03:28:20.064Z,101390.53
2022-08-30T03:29:06.761Z,101387.53
2022-08-30T03:29:53.696Z,101395.34
2022-08-30T03:30:40.681Z,101394.28
2022-08-30T03:31:27.143Z,101384.84
2022-08-30T03:32:13.688Z,101382.44
2022-08-30T03:33:01.707Z,101384.84
2022-08-30T03:33:48.216Z,101388.63
2022-08-30T03:34:34.770Z,101387.00
2022-08-30T03:35:21.347Z,101385.38
2022-08-30T03:36:09.217Z,101386.16
2022-08-30T03:36:56.691Z,101379.22
2022-08-30T03:37:43.293Z,101390.16
2022-08-30T03:38:31.204Z,101384.28
2022-08-30T03:39:17.916Z,101382.66
2022-08-30T03:40:08.078Z,101386.94
2022-08-30T03:40:54.591Z,101384.50
2022-08-30T03:41:41.078Z,101385.31
2022-08-30T03:42:27.821Z,101381.59
2022-08-30T03:43:14.267Z,101383.22
2022-08-30T03:44:02.438Z,101381.34
2022-08-30T03:44:50.324Z,101381.81
2022-08-30T03:45:36.985Z,101387.47
2022-08-30T03:46:24.671Z,101382.97
2022-08-30T03:47:17.028Z,101388.31
2022-08-30T03:48:03.959Z,101382.13
2022-08-30T03:48:52.044Z,101391.78
2022-08-30T03:49:39.024Z,101388.31
2022-08-30T03:50:25.618Z,101387.47
2022-08-30T03:51:12.088Z,101382.69
2022-08-30T03:51:58.675Z,101389.09
2022-08-30T03:52:45.920Z,101385.38
2022-08-30T03:53:32.911Z,101386.16
2022-08-30T03:54:19.377Z,101383.50
2022-08-30T03:55:06.651Z,101380.03
2022-08-30T03:55:53.246Z,101377.34
2022-08-30T03:56:41.302Z,101383.50
2022-08-30T03:57:28.681Z,101386.75
2022-08-30T03:58:15.249Z,101384.31
2022-08-30T03:59:06.190Z,101385.94
2022-08-30T03:59:52.816Z,101377.09
2022-08-30T04:00:39.525Z,101380.59
2022-08-30T04:01:26.100Z,101379.75
2022-08-30T04:02:12.695Z,101387.25
2022-08-30T04:02:59.240Z,101373.56
2022-08-30T04:03:45.740Z,101374.94
2022-08-30T04:04:32.759Z,101374.41
2022-08-30T04:05:20.460Z,101376.28
2022-08-30T04:06:07.176Z,101380.28
2022-08-30T04:06:53.663Z,101377.03
2022-08-30T04:07:40.468Z,101375.09
2022-08-30T04:08:27.398Z,101385.28
2022-08-30T04:09:13.886Z,101380.16
2022-08-30T04:10:00.801Z,101378.56
2022-08-30T04:10:48.108Z,101376.00
2022-08-30T04:11:34.820Z,101378.41
2022-08-30T04:12:22.738Z,101376.72
2022-08-30T04:13:09.747Z,101380.44
2022-08-30T04:13:56.752Z,101378.75
2022-08-30T04:14:43.197Z,101372.03
2022-08-30T04:15:29.720Z,101370.91
2022-08-30T04:16:16.405Z,101372.22
2022-08-30T04:17:03.293Z,101370.31
2022-08-30T04:17:50.090Z,101376.97
2022-08-30T04:18:36.558Z,101377.19
2022-08-30T04:19:22.971Z,101377.44
2022-08-30T04:20:10.019Z,101380.63
2022-08-30T04:20:56.505Z,101373.91
2022-08-30T04:21:44.755Z,101379.72
2022-08-30T04:22:31.275Z,101386.69
2022-08-30T04:23:17.933Z,101384.28
2022-08-30T04:24:04.766Z,101383.16
2022-08-30T04:24:51.234Z,101387.44
2022-08-30T04:25:39.804Z,101388.25
2022-08-30T04:26:27.637Z,101382.34
2022-08-30T04:27:20.200Z,101387.44
2022-08-30T04:28:08.308Z,101382.34
2022-08-30T04:28:55.354Z,101383.16
2022-08-30T04:29:41.846Z,101387.69
2022-08-30T04:30:28.431Z,101385.25
2022-08-30T04:31:17.646Z,101394.91
2022-08-30T04:32:04.412Z,101389.00
2022-08-30T04:32:53.509Z,101386.56
2022-08-30T04:33:43.511Z,101385.50
2022-08-30T04:34:30.001Z,101389.25
2022-08-30T04:35:16.740Z,101380.38
2022-08-30T04:36:08.690Z,101394.59
2022-08-30T04:36:55.400Z,101391.09
2022-08-30T04:37:42.040Z,101388.41
2022-08-30T04:38:30.519Z,101390.88
2022-08-30T04:39:20.566Z,101389.25
2022-08-30T04:40:08.125Z,101389.25
2022-08-30T04:40:55.184Z,101398.88
2022-08-30T04:41:41.658Z,101391.66
2022-08-30T04:42:32.156Z,101390.88
2022-08-30T04:43:18.735Z,101394.59
2022-08-30T04:44:05.363Z,101397.00
2022-08-30T04:44:51.847Z,101398.06
2022-08-30T04:45:40.483Z,101403.41
2022-08-30T04:46:26.940Z,101396.44
2022-08-30T04:47:13.494Z,101392.72
2022-08-30T04:48:00.241Z,101400.47
2022-08-30T04:48:47.563Z,101393.75
2022-08-30T04:49:33.976Z,101395.13
2022-08-30T04:50:21.636Z,101399.69
2022-08-30T04:51:11.279Z,101394.34
2022-08-30T04:51:58.327Z,101400.47
2022-08-30T04:52:44.825Z,101397.81
2022-08-30T04:53:31.556Z,101396.75
2022-08-30T04:54:18.026Z,101401.31
2022-08-30T04:55:05.418Z,101398.13
2022-08-30T04:55:51.862Z,101406.16
2022-08-30T04:56:38.338Z,101401.63
2022-08-30T04:57:27.041Z,101401.63
2022-08-30T04:58:13.501Z,101402.69
2022-08-30T04:59:00.149Z,101397.59
2022-08-30T04:59:46.787Z,101404.31
2022-08-30T05:00:33.507Z,101405.41
2022-08-30T05:01:28.093Z,101405.41
2022-08-30T05:02:15.063Z,101404.63
2022-08-30T05:03:01.536Z,101403.78
2022-08-30T05:03:49.504Z,101415.31
2022-08-30T05:04:36.893Z,101413.44
2022-08-30T05:05:41.786Z,101404.38
2022-08-30T05:06:31.162Z,101409.72
2022-08-30T05:07:17.618Z,101415.88
2022-08-30T05:08:04.462Z,101412.94
2022-08-30T05:08:53.023Z,101408.91
2022-08-30T05:09:39.492Z,101411.81
2022-08-30T05:10:29.584Z,101400.59
2022-08-30T05:11:17.023Z,101418.78
2022-08-30T05:12:03.562Z,101416.38
2022-08-30T05:12:50.145Z,101424.16
2022-08-30T05:13:37.639Z,101422.28
2022-08-30T05:14:24.923Z,101423.09
2022-08-30T05:15:12.448Z,101418.78
2022-08-30T05:16:00.238Z,101422.84
2022-08-30T05:16:46.797Z,101423.63
2022-08-30T05:17:34.190Z,101426.31
2022-08-30T05:18:23.287Z,101424.47
2022-08-30T05:19:09.776Z,101422.03
2022-08-30T05:19:56.440Z,101424.22
2022-08-30T05:20:43.960Z,101422.38
2022-08-30T05:21:30.519Z,101427.47
2022-08-30T05:22:17.000Z,101428.25
2022-08-30T05:23:04.726Z,101425.34
2022-08-30T05:23:54.324Z,101420.56
2022-08-30T05:24:40.739Z,101429.38
2022-08-30T05:25:30.954Z,101424.84
2022-08-30T05:26:22.967Z,101429.16
2022-08-30T05:27:11.767Z,101427.53
2022-08-30T05:27:59.020Z,101419.25
2022-08-30T05:28:46.392Z,101427.28
2022-08-30T05:29:36.285Z,101417.16
2022-08-30T05:30:25.226Z,101415.84
2022-08-30T05:31:21.830Z,101412.59
2022-08-30T05:32:08.527Z,101416.66
2022-08-30T05:32:54.996Z,101423.63
2022-08-30T05:33:42.510Z,101425.50
2022-08-30T05:34:31.963Z,101415.84
2022-08-30T05:35:25.395Z,101423.63
2022-08-30T05:36:14.266Z,101423.38
2022-08-30T05:37:02.677Z,101424.41
2022-08-30T05:37:49.317Z,101423.38
2022-08-30T05:38:36.661Z,101422.56
2022-08-30T05:39:23.197Z,101430.91
2022-08-30T05:40:12.693Z,101421.00
2022-08-30T05:40:59.665Z,101427.19
2022-08-30T05:41:46.576Z,101426.69
2022-08-30T05:42:33.662Z,101424.56
2022-08-30T05:43:20.073Z,101418.41
2022-08-30T05:44:13.458Z,101420.53
2022-08-30T05:44:59.962Z,101417.28
2022-08-30T05:45:46.474Z,101421.84
2022-08-30T05:47:25.927Z,101425.56
2022-08-30T05:48:13.118Z,101419.38
2022-08-30T05:49:03.471Z,101422.31
2022-08-30T05:49:49.994Z,101411.63
2022-08-30T05:50:39.817Z,101415.34
2022-08-30T05:51:28.861Z,101423.13
2022-08-30T05:52:18.043Z,101423.69
2022-08-30T05:53:04.512Z,101422.06
2022-08-30T05:53:53.893Z,101422.88
2022-08-30T05:54:40.359Z,101419.16
2022-08-30T05:55:26.834Z,101427.19
2022-08-30T05:56:16.821Z,101430.66
2022-08-30T05:57:03.544Z,101428.78
2022-08-30T05:57:49.971Z,101422.38
2022-08-30T05:58:37.190Z,101424.00
2022-08-30T05:59:23.764Z,101428.31
2022-08-30T06:00:17.914Z,101429.66
2022-08-30T06:01:23.610Z,101432.41
2022-08-30T06:02:10.422Z,101430.31
2022-08-30T06:02:58.072Z,101431.69
2022-08-30T06:03:44.621Z,101434.09
2022-08-30T06:04:31.869Z,101424.78
2022-08-30T06:05:19.397Z,101424.53
2022-08-30T06:06:06.176Z,101427.53
2022-08-30T06:06:54.035Z,101421.44
2022-08-30T06:07:43.050Z,101430.47
2022-08-30T06:08:29.949Z,101422.91
2022-08-30T06:09:16.687Z,101435.06
2022-08-30T06:10:06.513Z,101433.19
2022-08-30T06:10:53.004Z,101435.09
2022-08-30T06:11:39.497Z,101438.09
2022-08-30T06:12:26.539Z,101442.19
2022-08-30T06:13:14.410Z,101442.81
2022-08-30T06:14:02.101Z,101438.84
2022-08-30T06:14:48.591Z,101435.94
2022-08-30T06:15:35.334Z,101431.97
2022-08-30T06:16:26.005Z,101437.91
2022-08-30T06:17:12.715Z,101436.34
2022-08-30T06:17:59.768Z,101438.25
2022-08-30T06:18:47.073Z,101440.19
2022-08-30T06:19:33.568Z,101443.72
2022-08-30T06:20:20.984Z,101431.41
2022-08-30T06:21:09.516Z,101437.34
2022-08-30T06:21:57.947Z,101429.84
2022-08-30T06:22:44.456Z,101426.66
2022-08-30T06:23:31.279Z,101421.84
2022-08-30T06:24:17.977Z,101423.78
2022-08-30T06:25:05.758Z,101425.94
2022-08-30T06:25:52.534Z,101423.56
2022-08-30T06:26:42.928Z,101425.75
2022-08-30T06:27:31.115Z,101421.75
2022-08-30T06:28:18.295Z,101423.09
2022-08-30T06:29:05.004Z,101422.84
2022-08-30T06:29:53.540Z,101421.25
2022-08-30T06:30:41.898Z,101417.25
2022-08-30T06:31:28.389Z,101420.22
2022-08-30T06:32:14.856Z,101418.88
2022-08-30T06:33:01.924Z,101415.69
2022-08-30T06:33:48.735Z,101418.13
2022-08-30T06:34:35.185Z,101420.53
2022-08-30T06:35:21.702Z,101429.72
2022-08-30T06:36:19.164Z,101425.94
2022-08-30T06:37:05.672Z,101426.00
2022-08-30T06:37:52.141Z,101425.47
2022-08-30T06:38:40.283Z,101420.66
2022-08-30T06:39:27.067Z,101432.19
2022-08-30T06:40:14.139Z,101417.16
2022-08-30T06:41:00.879Z,101420.44
2022-08-30T06:41:48.600Z,101421.78
2022-08-30T06:42:47.691Z,101421.28
2022-08-30T06:43:34.310Z,101423.72
2022-08-30T06:44:21.264Z,101419.44
2022-08-30T06:45:10.446Z,101422.66
2022-08-30T06:46:03.372Z,101422.69
2022-08-30T06:46:50.036Z,101421.91
2022-08-30T06:47:36.633Z,101425.41
2022-08-30T06:48:23.143Z,101425.69
2022-08-30T06:49:09.669Z,101428.19
2022-08-30T06:49:57.382Z,101418.78
2022-08-30T06:50:45.077Z,101426.09
2022-08-30T06:51:36.144Z,101425.00
2022-08-30T06:52:22.656Z,101426.09
2022-08-30T06:53:09.447Z,101425.56
2022-08-30T06:53:56.433Z,101425.03
2022-08-30T06:54:43.734Z,101429.06
2022-08-30T06:55:33.131Z,101426.13
2022-08-30T06:56:22.656Z,101428.25
2022-08-30T06:57:09.078Z,101433.13
2022-08-30T06:57:55.534Z,101433.63
2022-08-30T06:58:42.562Z,101426.91
2022-08-30T06:59:29.076Z,101432.06
2022-08-30T07:00:16.791Z,101430.72
2022-08-30T07:01:21.742Z,101429.09
2022-08-30T07:02:09.197Z,101425.59
2022-08-30T07:02:55.950Z,101436.34
2022-08-30T07:03:42.856Z,101437.94
2022-08-30T07:04:29.432Z,101437.44
2022-08-30T07:05:18.998Z,101437.97
2022-08-30T07:06:08.589Z,101438.25
2022-08-30T07:06:55.127Z,101439.06
2022-08-30T07:07:41.576Z,101442.56
2022-08-30T07:08:28.218Z,101437.22
2022-08-30T07:09:14.649Z,101435.84
2022-08-30T07:10:08.789Z,101432.06
2022-08-30T07:10:55.847Z,101436.09
2022-08-30T07:11:43.603Z,101437.16
2022-08-30T07:12:30.905Z,101432.81
2022-08-30T07:13:17.823Z,101436.28
2022-08-30T07:14:05.698Z,101434.88
2022-08-30T07:14:52.195Z,101426.53
2022-08-30T07:15:42.601Z,101430.03
2022-08-30T07:16:29.271Z,101436.19
2022-08-30T07:17:35.751Z,101428.06
2022-08-30T07:18:41.076Z,101430.16
2022-08-30T07:19:27.587Z,101433.66
2022-08-30T07:20:14.151Z,101430.13
2022-08-30T07:21:08.210Z,101436.06
2022-08-30T07:21:54.801Z,101443.06
2022-08-30T07:22:42.030Z,101439.81
2022-08-30T07:23:28.501Z,101432.25
2022-08-30T07:24:14.963Z,101435.78
2022-08-30T07:25:01.786Z,101435.22
2022-08-30T07:25:48.378Z,101447.06
2022-08-30T07:26:38.582Z,101444.06
2022-08-30T07:27:25.262Z,101437.59
2022-08-30T07:28:12.600Z,101445.66
2022-08-30T07:29:02.890Z,101444.59
2022-08-30T07:29:50.016Z,101436.75
2022-08-30T07:30:37.659Z,101442.94
2022-08-30T07:31:25.275Z,101437.50
2022-08-30T07:32:11.699Z,101443.34
2022-08-30T07:32:58.694Z,101439.28
2022-08-30T07:33:46.400Z,101442.72
2022-08-30T07:34:33.157Z,101443.78
2022-08-30T07:35:19.605Z,101440.47
2022-08-30T07:36:07.169Z,101440.59
2022-08-30T07:36:53.868Z,101440.28
2022-08-30T07:37:40.419Z,101452.00
2022-08-30T07:38:27.516Z,101444.16
2022-08-30T07:39:17.286Z,101436.78
2022-08-30T07:40:04.804Z,101442.66
2022-08-30T07:40:51.663Z,101442.91
2022-08-30T07:41:40.331Z,101447.88
2022-08-30T07:42:26.790Z,101446.28
2022-08-30T07:43:13.305Z,101446.78
2022-08-30T07:44:00.260Z,101447.59
2022-08-30T07:44:47.649Z,101448.47
2022-08-30T07:45:34.088Z,101444.84
2022-08-30T07:46:23.928Z,101454.44
2022-08-30T07:47:11.494Z,101457.31
2022-08-30T07:47:58.506Z,101452.19
2022-08-30T07:48:45.728Z,101454.06
2022-08-30T07:49:33.083Z,101451.03
2022-08-30T07:50:19.552Z,101455.88
2022-08-30T07:51:10.230Z,101456.09
2022-08-30T07:51:57.123Z,101446.69
2022-08-30T07:52:43.673Z,101459.81
2022-08-30T07:53:30.991Z,101462.16
2022-08-30T07:54:17.618Z,101450.13
2022-08-30T07:55:06.011Z,101460.59
2022-08-30T07:55:53.302Z,101461.81
2022-08-30T07:56:40.092Z,101459.56
2022-08-30T07:57:28.123Z,101463.84
2022-08-30T07:58:14.976Z,101460.03
2022-08-30T07:59:01.792Z,101462.25
2022-08-30T07:59:51.109Z,101460.44
2022-08-30T08:00:37.657Z,101453.72
2022-08-30T08:01:25.629Z,101460.09
2022-08-30T08:02:12.378Z,101458.00
2022-08-30T08:03:05.231Z,101456.94
2022-08-30T08:03:53.205Z,101455.41
2022-08-30T08:04:39.891Z,101458.44
2022-08-30T08:05:26.720Z,101455.72
2022-08-30T08:06:15.451Z,101460.56
2022-08-30T08:07:02.243Z,101457.03
2022-08-30T08:07:48.836Z,101463.63
2022-08-30T08:08:36.613Z,101452.34
2022-08-30T08:09:23.144Z,101454.91
2022-08-30T08:10:10.203Z,101459.47
2022-08-30T08:11:08.138Z,101455.31
2022-08-30T08:11:55.281Z,101458.38
2022-08-30T08:12:41.972Z,101457.59
2022-08-30T08:13:32.668Z,101459.22
2022-08-30T08:14:21.373Z,101459.44
2022-08-30T08:15:09.084Z,101460.31
2022-08-30T08:15:55.723Z,101459.78
2022-08-30T08:16:44.670Z,101458.38
2022-08-30T08:17:31.235Z,101458.13
2022-08-30T08:18:17.853Z,101458.31
2022-08-30T08:19:08.903Z,101461.63
2022-08-30T08:19:55.452Z,101459.22
2022-08-30T08:20:42.523Z,101459.25
2022-08-30T08:21:28.999Z,101465.53
2022-08-30T08:22:20.992Z,101469.25
2022-08-30T08:23:08.767Z,101467.47
2022-08-30T08:23:55.435Z,101472.75
2022-08-30T08:24:41.900Z,101469.44
2022-08-30T08:25:28.542Z,101466.16
2022-08-30T08:26:18.555Z,101467.81
2022-08-30T08:27:05.201Z,101467.06
2022-08-30T08:27:53.076Z,101464.66
2022-08-30T08:28:52.775Z,101466.06
2022-08-30T08:29:39.401Z,101466.97
2022-08-30T08:30:25.989Z,101460.84
2022-08-30T08:31:18.103Z,101460.66
2022-08-30T08:32:05.218Z,101455.81
2022-08-30T08:32:52.705Z,101453.72
2022-08-30T08:33:39.178Z,101446.25
2022-08-30T08:34:27.110Z,101457.06
2022-08-30T08:35:14.836Z,101452.94
2022-08-30T08:36:01.801Z,101455.50
2022-08-30T08:36:50.873Z,101455.63
2022-08-30T08:37:39.106Z,101454.97
2022-08-30T08:38:25.522Z,101455.28
2022-08-30T08:39:12.022Z,101457.91
2022-08-30T08:39:58.593Z,101451.38
2022-08-30T08:41:03.691Z,101455.59
2022-08-30T08:42:04.111Z,101453.09
2022-08-30T08:43:00.692Z,101450.91
2022-08-30T08:43:47.533Z,101452.63
2022-08-30T08:44:54.302Z,101451.03
2022-08-30T08:45:47.453Z,101456.16
2022-08-30T08:47:11.660Z,101460.38
2022-08-30T08:48:10.401Z,101460.06
2022-08-30T08:49:04.785Z,101457.63
2022-08-30T08:49:58.273Z,101466.84
2022-08-30T08:51:07.212Z,101468.44
2022-08-30T08:52:14.218Z,101458.44
2022-08-30T08:53:46.051Z,101464.34
2022-08-30T08:54:48.578Z,101454.91
2022-08-30T08:55:39.413Z,101449.81
2022-08-30T08:56:26.537Z,101447.31
2022-08-30T08:57:15.981Z,101453.13
2022-08-30T08:58:03.169Z,101454.44
2022-08-30T08:58:53.404Z,101452.50
2022-08-30T08:59:40.070Z,101457.53
2022-08-30T09:00:26.621Z,101455.31
2022-08-30T09:01:17.938Z,101448.22
2022-08-30T09:02:24.601Z,101445.88
2022-08-30T09:03:16.343Z,101447.00
2022-08-30T09:04:34.301Z,101453.31
2022-08-30T09:05:25.827Z,101450.28
2022-08-30T09:06:26.439Z,101451.66
2022-08-30T09:07:24.526Z,101450.72
2022-08-30T09:08:15.239Z,101451.25
2022-08-30T09:09:01.711Z,101446.03
2022-08-30T09:09:50.074Z,101446.25
2022-08-30T09:10:50.568Z,101445.16
2022-08-30T09:11:39.637Z,101444.06
2022-08-30T09:12:27.553Z,101445.03
2022-08-30T09:13:14.239Z,101442.22
2022-08-30T09:14:01.108Z,101438.97
2022-08-30T09:14:55.501Z,101434.66